createdAt,value
2022-10-06T00:04:47.098Z,9.50
2022-10-06T00:09:49.627Z,9.60
2022-10-06T00:14:51.986Z,9.70
2022-10-06T00:19:54.683Z,9.70
2022-10-06T00:24:57.194Z,9.70
2022-10-06T00:29:59.556Z,9.80
2022-10-06T00:35:02.679Z,9.70
2022-10-06T00:40:09.939Z,9.90
2022-10-06T00:45:12.360Z,9.70
2022-10-06T00:50:15.448Z,10.00
2022-10-06T00:55:20.275Z,9.90
2022-10-06T01:00:22.762Z,9.90
2022-10-06T01:05:34.793Z,10.00
2022-10-06T01:10:37.582Z,10.00
2022-10-06T01:15:47.908Z,10.00
2022-10-06T01:20:58.172Z,9.90
2022-10-06T01:26:04.869Z,9.70
2022-10-06T01:31:09.353Z,9.50
2022-10-06T01:36:12.185Z,9.50
2022-10-06T01:41:14.872Z,9.50
2022-10-06T01:46:17.433Z,9.50
2022-10-06T01:51:20.004Z,9.40
2022-10-06T01:56:23.077Z,9.40
2022-10-06T02:01:25.999Z,9.70
2022-10-06T02:06:30.285Z,9.70
2022-10-06T02:11:34.081Z,9.70
2022-10-06T02:16:40.413Z,9.90
2022-10-06T02:21:42.975Z,9.80
2022-10-06T02:26:45.417Z,9.80
2022-10-06T02:31:49.461Z,9.80
2022-10-06T02:36:53.117Z,9.80
2022-10-06T02:41:56.069Z,9.80
2022-10-06T02:46:59.554Z,9.80
2022-10-06T02:52:02.557Z,9.90
2022-10-06T02:57:05.122Z,9.80
2022-10-06T03:02:07.852Z,10.10
2022-10-06T03:07:11.835Z,10.10
2022-10-06T03:12:14.361Z,10.30
2022-10-06T03:17:19.726Z,10.10
2022-10-06T03:22:27.222Z,10.20
2022-10-06T03:27:32.038Z,10.10
2022-10-06T03:32:38.180Z,10.10
2022-10-06T03:37:41.228Z,9.90
2022-10-06T03:42:43.746Z,10.00
2022-10-06T03:47:46.401Z,9.90
2022-10-06T03:52:51.413Z,9.90
2022-10-06T03:57:57.331Z,9.70
2022-10-06T04:03:00.173Z,9.60
2022-10-06T04:08:03.714Z,9.70
2022-10-06T04:13:06.179Z,9.60
2022-10-06T04:18:09.184Z,9.60
2022-10-06T04:23:12.462Z,9.60
2022-10-06T04:28:15.750Z,9.60
2022-10-06T04:33:19.106Z,9.60
2022-10-06T04:38:21.865Z,9.70
2022-10-06T04:43:25.091Z,9.70
2022-10-06T04:48:29.032Z,9.80
2022-10-06T04:53:32.285Z,10.00
2022-10-06T04:58:37.662Z,10.00
2022-10-06T05:03:40.805Z,10.00
2022-10-06T05:08:47.072Z,10.10
2022-10-06T05:13:51.088Z,10.20
2022-10-06T05:18:54.370Z,10.40
2022-10-06T05:23:57.192Z,10.80
2022-10-06T05:29:00.639Z,11.20
2022-10-06T05:34:03.459Z,11.60
2022-10-06T05:39:06.503Z,11.80
2022-10-06T05:44:14.801Z,12.00
2022-10-06T05:49:21.065Z,12.20
2022-10-06T05:54:28.986Z,12.30
2022-10-06T05:59:31.680Z,12.50
2022-10-06T06:04:35.618Z,12.60
2022-10-06T06:09:38.429Z,12.60
2022-10-06T06:14:59.373Z,12.70
2022-10-06T06:20:07.448Z,12.90
2022-10-06T06:25:10.484Z,13.00
2022-10-06T06:30:13.098Z,13.10
2022-10-06T06:35:17.218Z,13.20
2022-10-06T06:40:19.822Z,13.40
2022-10-06T06:45:22.640Z,13.50
2022-10-06T06:50:57.209Z,13.70
2022-10-06T06:56:00.552Z,13.80
2022-10-06T07:01:14.257Z,13.90
2022-10-06T07:06:18.254Z,13.90
2022-10-06T07:11:24.442Z,14.00
2022-10-06T07:16:46.438Z,14.10
2022-10-06T07:22:18.555Z,14.40
2022-10-06T07:27:21.301Z,14.70
2022-10-06T07:32:26.017Z,14.70
2022-10-06T07:37:29.198Z,15.00
2022-10-06T07:42:47.895Z,15.40
2022-10-06T07:48:02.121Z,15.30
2022-10-06T07:53:08.850Z,15.20
2022-10-06T07:58:26.026Z,15.30
2022-10-06T08:03:28.475Z,15.50
2022-10-06T08:08:32.767Z,15.80
2022-10-06T08:13:36.945Z,15.90
2022-10-06T08:18:47.531Z,16.20
2022-10-06T08:23:51.500Z,16.30
2022-10-06T08:28:57.623Z,16.50
2022-10-06T08:34:01.425Z,16.70
2022-10-06T08:39:04.122Z,16.80
2022-10-06T08:44:18.121Z,17.00
2022-10-06T08:49:23.321Z,17.50
2022-10-06T08:54:30.020Z,17.90
2022-10-06T08:59:36.637Z,18.10
2022-10-06T09:04:39.210Z,17.90
2022-10-06T09:09:56.497Z,17.80
2022-10-06T09:15:28.694Z,17.90
2022-10-06T09:20:47.322Z,18.00
2022-10-06T09:25:50.706Z,18.20
2022-10-06T09:30:55.463Z,18.40
2022-10-06T09:36:09.922Z,18.60
2022-10-06T09:41:13.514Z,18.40
2022-10-06T09:46:41.901Z,18.60
2022-10-06T09:52:01.016Z,18.50
2022-10-06T09:57:10.772Z,18.40
2022-10-06T10:02:37.278Z,18.30
2022-10-06T10:07:40.244Z,18.70
2022-10-06T10:12:53.700Z,18.70
2022-10-06T10:17:57.240Z,18.70
2022-10-06T10:23:20.784Z,18.70
2022-10-06T10:28:35.240Z,18.90
2022-10-06T10:34:05.160Z,19.10
2022-10-06T10:39:32.440Z,19.30
2022-10-06T10:44:37.854Z,19.30
2022-10-06T10:49:43.558Z,18.90
2022-10-06T10:54:53.331Z,18.90
2022-10-06T11:00:12.759Z,19.00
2022-10-06T11:05:32.660Z,19.00
2022-10-06T11:10:46.576Z,19.30
2022-10-06T11:16:06.918Z,19.50
2022-10-06T11:21:32.889Z,19.00
2022-10-06T11:27:03.418Z,19.10
2022-10-06T11:32:20.993Z,19.10
2022-10-06T11:37:47.687Z,19.10
2022-10-06T11:43:03.874Z,19.00
2022-10-06T11:48:24.292Z,18.60
2022-10-06T11:53:37.014Z,18.60
2022-10-06T11:58:51.616Z,18.90
2022-10-06T12:04:12.251Z,19.30
2022-10-06T12:09:39.781Z,18.90
2022-10-06T12:20:55.117Z,19.10
2022-10-06T12:26:07.159Z,19.30
2022-10-06T12:31:18.714Z,19.20
2022-10-06T12:36:25.996Z,19.00
2022-10-06T12:42:00.816Z,18.80
2022-10-06T12:47:10.576Z,18.50
2022-10-06T12:52:21.209Z,18.30
2022-10-06T12:57:28.609Z,18.00
2022-10-06T13:02:31.411Z,18.00
2022-10-06T13:07:34.429Z,18.30
2022-10-06T13:12:41.491Z,18.40
2022-10-06T13:18:09.764Z,17.90
2022-10-06T13:23:21.218Z,17.50
2022-10-06T13:28:44.106Z,17.50
2022-10-06T13:34:13.632Z,17.40
2022-10-06T13:39:22.845Z,17.40
2022-10-06T13:44:28.705Z,17.20
2022-10-06T13:49:43.421Z,17.30
2022-10-06T13:54:57.884Z,17.70
2022-10-06T14:00:27.986Z,17.90
2022-10-06T14:05:40.511Z,18.00
2022-10-06T14:11:02.020Z,17.70
2022-10-06T14:16:10.853Z,17.50
2022-10-06T14:21:37.030Z,17.40
2022-10-06T14:26:39.925Z,17.40
2022-10-06T14:31:44.096Z,17.20
2022-10-06T14:36:51.406Z,17.10
2022-10-06T14:41:54.505Z,17.00
2022-10-06T14:46:57.930Z,17.00
2022-10-06T14:52:00.412Z,16.70
2022-10-06T14:57:02.919Z,17.30
2022-10-06T15:02:05.437Z,16.30
2022-10-06T15:07:26.737Z,16.10
2022-10-06T15:12:33.744Z,16.10
2022-10-06T15:17:36.677Z,16.30
2022-10-06T15:22:39.401Z,16.20
2022-10-06T15:28:00.263Z,16.00
2022-10-06T15:33:02.962Z,15.70
2022-10-06T15:38:05.410Z,15.40
2022-10-06T15:43:07.865Z,15.10
2022-10-06T15:48:10.294Z,14.80
2022-10-06T15:53:14.900Z,14.60
2022-10-06T15:58:17.452Z,14.40
2022-10-06T16:03:45.873Z,14.30
2022-10-06T16:08:48.605Z,14.10
2022-10-06T16:13:52.425Z,13.90
2022-10-06T16:18:55.187Z,13.80
2022-10-06T16:23:58.848Z,13.70
2022-10-06T16:29:01.347Z,13.50
2022-10-06T16:34:03.962Z,13.30
2022-10-06T16:39:12.289Z,13.00
2022-10-06T16:44:15.081Z,12.60
2022-10-06T16:49:17.551Z,12.20
2022-10-06T16:54:20.988Z,11.80
2022-10-06T16:59:28.810Z,11.50
2022-10-06T17:04:31.246Z,11.40
2022-10-06T17:09:33.614Z,11.10
2022-10-06T17:14:36.136Z,10.80
2022-10-06T17:19:38.649Z,10.50
2022-10-06T17:24:41.152Z,10.20
2022-10-06T17:29:44.666Z,10.20
2022-10-06T17:34:47.839Z,9.90
2022-10-06T17:39:50.444Z,9.40
2022-10-06T17:44:53.124Z,9.20
2022-10-06T17:49:57.037Z,9.40
2022-10-06T17:54:59.401Z,9.30
2022-10-06T18:00:02.074Z,8.90
2022-10-06T18:05:14.901Z,8.80
2022-10-06T18:10:36.077Z,8.40
2022-10-06T18:15:38.558Z,8.30
2022-10-06T18:20:41.853Z,8.30
2022-10-06T18:25:45.237Z,8.20
2022-10-06T18:30:51.368Z,8.10
2022-10-06T18:36:14.763Z,7.90
2022-10-06T18:41:19.398Z,7.90
2022-10-06T18:46:41.030Z,7.70
2022-10-06T18:51:49.504Z,7.50
2022-10-06T18:56:51.964Z,7.40
2022-10-06T19:01:56.741Z,7.50
2022-10-06T19:06:59.171Z,7.50
2022-10-06T19:12:01.944Z,7.60
2022-10-06T19:17:13.426Z,7.30
2022-10-06T19:22:16.238Z,7.10
2022-10-06T19:27:24.385Z,7.00
2022-10-06T19:32:28.701Z,7.10
2022-10-06T19:37:31.430Z,7.30
2022-10-06T19:42:49.155Z,7.10
2022-10-06T19:47:52.137Z,6.80
2022-10-06T19:52:55.485Z,6.60
2022-10-06T19:58:00.022Z,6.30
2022-10-06T20:03:02.621Z,6.30
2022-10-06T20:08:05.125Z,6.40
2022-10-06T20:13:07.492Z,6.40
2022-10-06T20:18:09.982Z,6.30
2022-10-06T20:23:12.518Z,6.00
2022-10-06T20:28:15.025Z,6.00
2022-10-06T20:33:17.542Z,6.00
2022-10-06T20:38:39.942Z,5.90
2022-10-06T20:43:43.284Z,5.80
2022-10-06T20:48:50.171Z,5.70
2022-10-06T20:53:53.752Z,5.60
2022-10-06T20:58:57.562Z,5.50
2022-10-06T21:04:00.009Z,5.30
2022-10-06T21:09:02.850Z,5.20
2022-10-06T21:14:10.447Z,5.30
2022-10-06T21:19:15.749Z,5.40
2022-10-06T21:24:20.640Z,5.40
2022-10-06T21:29:23.212Z,5.00
2022-10-06T21:34:25.676Z,5.10
2022-10-06T21:39:28.171Z,5.00
2022-10-06T21:44:30.628Z,5.20
2022-10-06T21:49:33.225Z,5.40
2022-10-06T21:54:35.758Z,5.10
2022-10-06T21:59:38.338Z,4.90
2022-10-06T22:04:41.838Z,4.80
2022-10-06T22:09:44.387Z,4.80
2022-10-06T22:14:46.824Z,4.60
2022-10-06T22:19:49.319Z,4.60
2022-10-06T22:24:51.797Z,4.70
2022-10-06T22:29:54.228Z,4.50
2022-10-06T22:34:57.490Z,4.60
2022-10-06T22:40:04.078Z,4.50
2022-10-06T22:45:09.703Z,4.30
2022-10-06T22:50:14.908Z,4.20
2022-10-06T22:55:17.607Z,4.10
2022-10-06T23:00:20.223Z,4.20
2022-10-06T23:05:22.843Z,4.20
2022-10-06T23:10:25.648Z,4.30
2022-10-06T23:15:28.792Z,4.40
2022-10-06T23:20:31.414Z,4.30
2022-10-06T23:25:37.986Z,3.90
2022-10-06T23:30:40.672Z,3.90
2022-10-06T23:35:43.247Z,3.90
2022-10-06T23:40:45.849Z,3.90
2022-10-06T23:45:48.589Z,3.90
2022-10-06T23:50:56.934Z,3.90
2022-10-06T23:55:59.994Z,3.80
